Time;durP1;ratioP1;P1;durP2;ratioP2;P2;SDS_P1;SDS_P2;PMS_P1;PMS_P2;Temp;Humidity;BMP_temperature;BMP_pressure;BME280_temperature;BME280_humidity;BME280_pressure;Samples;Min_cycle;Max_cycle;Signal;HPM_P1;HPM_P2
2022/12/12 00:01:58;;;;;;;7.88;1.45;;;27.90;58.70;;;;;;4137502;28;20041;-59
2022/12/12 00:04:20;;;;;;;7.45;2.03;;;28.00;58.90;;;;;;4132361;28;20077;-50
2022/12/12 00:06:43;;;;;;;4.15;1.00;;;27.90;59.10;;;;;;4136543;28;20133;-53
2022/12/12 00:09:05;;;;;;;5.07;1.20;;;28.00;59.40;;;;;;4136648;28;20072;-54
2022/12/12 00:11:28;;;;;;;4.13;1.38;;;28.00;59.20;;;;;;4133930;28;20042;-51
2022/12/12 00:13:51;;;;;;;6.20;1.23;;;28.10;59.10;;;;;;4136507;28;20513;-52
2022/12/12 00:16:15;;;;;;;2.53;1.25;;;28.10;58.90;;;;;;4136075;28;20037;-55
2022/12/12 00:18:37;;;;;;;3.13;1.13;;;28.20;58.80;;;;;;4137195;28;20053;-49
2022/12/12 00:21:00;;;;;;;2.67;0.98;;;28.20;58.70;;;;;;4136645;28;20038;-53
2022/12/12 00:23:24;;;;;;;1.42;0.82;;;28.20;58.60;;;;;;4135409;28;20038;-50
2022/12/12 00:25:54;;;;;;;2.05;0.90;;;28.20;58.70;;;;;;4131621;28;20146;-52
2022/12/12 00:28:17;;;;;;;1.65;0.68;;;28.20;58.60;;;;;;4135977;28;20406;-50
2022/12/12 00:30:39;;;;;;;1.65;0.70;;;28.30;58.60;;;;;;4133628;28;20049;-55
2022/12/12 00:33:02;;;;;;;2.40;0.90;;;28.20;58.70;;;;;;4135000;28;20046;-53
2022/12/12 00:35:24;;;;;;;2.08;0.80;;;28.30;58.80;;;;;;4138067;28;20050;-55
2022/12/12 00:37:47;;;;;;;1.52;0.77;;;28.30;58.80;;;;;;4136222;28;20046;-55
2022/12/12 00:40:10;;;;;;;7.07;1.08;;;28.30;58.90;;;;;;4136747;28;20517;-55
2022/12/12 00:42:33;;;;;;;1.02;0.68;;;28.30;58.80;;;;;;4138814;28;20461;-49
2022/12/12 00:44:56;;;;;;;0.53;0.50;;;28.30;58.80;;;;;;4138180;28;20045;-55
2022/12/12 00:47:18;;;;;;;1.75;0.80;;;28.30;58.80;;;;;;4138409;28;20771;-47
2022/12/12 00:49:44;;;;;;;2.17;0.80;;;28.30;58.80;;;;;;4136278;28;20044;-52
2022/12/12 00:52:06;;;;;;;1.25;0.73;;;28.30;58.70;;;;;;4137119;28;20128;-54
2022/12/12 00:54:29;;;;;;;1.85;0.70;;;28.30;58.70;;;;;;4136582;28;20404;-49
2022/12/12 00:56:51;;;;;;;3.08;0.73;;;28.30;58.60;;;;;;4134472;28;20486;-50
2022/12/12 00:59:14;;;;;;;1.15;0.50;;;28.40;58.70;;;;;;4137060;28;20103;-51
2022/12/12 01:01:37;;;;;;;0.77;0.67;;;28.40;58.70;;;;;;4136059;28;20037;-53
2022/12/12 01:04:00;;;;;;;1.10;0.43;;;28.40;58.70;;;;;;4135918;28;20527;-49
2022/12/12 01:06:23;;;;;;;1.40;0.60;;;28.40;58.80;;;;;;4132741;28;20030;-47
2022/12/12 01:08:46;;;;;;;0.85;0.65;;;28.40;58.70;;;;;;4133364;28;20413;-52
2022/12/12 01:11:10;;;;;;;0.95;0.60;;;28.40;59.40;;;;;;4137225;28;20072;-52
2022/12/12 01:13:33;;;;;;;1.55;0.90;;;28.40;58.70;;;;;;4134951;28;20038;-50
2022/12/12 01:15:55;;;;;;;1.95;0.90;;;28.40;58.70;;;;;;4135979;28;20038;-45
2022/12/12 01:18:19;;;;;;;1.98;1.00;;;28.40;58.70;;;;;;4130948;28;20053;-47
2022/12/12 01:20:42;;;;;;;2.60;1.45;;;28.40;59.00;;;;;;4131319;28;20463;-58
2022/12/12 01:23:04;;;;;;;2.35;1.20;;;28.40;58.20;;;;;;4136215;28;20114;-48
2022/12/12 01:25:27;;;;;;;2.85;0.80;;;28.40;58.30;;;;;;4133600;28;20101;-51
2022/12/12 01:27:49;;;;;;;3.17;1.00;;;28.40;58.30;;;;;;4136374;28;20430;-49
2022/12/12 01:30:15;;;;;;;3.72;1.00;;;28.40;58.30;;;;;;4133381;28;20271;-49
2022/12/12 01:32:38;;;;;;;1.52;0.75;;;28.40;58.40;;;;;;4135477;28;20045;-47
2022/12/12 01:35:00;;;;;;;1.50;0.70;;;28.50;58.30;;;;;;4133951;28;20414;-46
2022/12/12 01:37:23;;;;;;;3.17;0.80;;;28.50;58.30;;;;;;4130209;28;20050;-49
2022/12/12 01:39:46;;;;;;;3.25;1.10;;;28.50;58.40;;;;;;4127495;28;20030;-49
2022/12/12 01:42:17;;;;;;;1.63;1.00;;;28.50;58.40;;;;;;4134304;28;20091;-53
2022/12/12 01:44:46;;;;;;;1.98;1.00;;;28.50;58.40;;;;;;4136211;28;20510;-52
2022/12/12 01:47:09;;;;;;;2.28;1.10;;;28.50;58.50;;;;;;4149728;28;20529;-51
2022/12/12 01:49:33;;;;;;;2.63;1.42;;;28.50;58.60;;;;;;4132737;28;20046;-51
2022/12/12 01:52:02;;;;;;;2.92;1.30;;;28.50;58.50;;;;;;4138945;28;20398;-51
2022/12/12 01:54:33;;;;;;;2.95;1.63;;;28.50;58.30;;;;;;4129585;28;20393;-52
2022/12/12 01:56:58;;;;;;;5.47;2.13;;;28.50;58.30;;;;;;4137294;28;20045;-54
2022/12/12 01:59:23;;;;;;;4.20;1.90;;;28.50;58.10;;;;;;4141927;28;20422;-53
2022/12/12 02:01:46;;;;;;;3.40;1.80;;;28.60;58.10;;;;;;4140145;28;20548;-53
2022/12/12 02:04:10;;;;;;;3.95;2.03;;;28.60;58.30;;;;;;4130440;28;20463;-51
2022/12/12 02:06:31;;;;;;;;;;;28.50;58.40;;;;;;4136016;28;20514;-55
2022/12/12 02:08:59;;;;;;;3.42;1.73;;;28.60;58.80;;;;;;4136358;28;19925;-53
2022/12/12 02:11:21;;;;;;;3.15;1.70;;;28.60;58.60;;;;;;4132562;28;20037;-50
2022/12/12 02:13:44;;;;;;;3.15;1.73;;;28.60;58.60;;;;;;4138351;28;20446;-53
2022/12/12 02:16:19;;;;;;;2.95;1.40;;;28.70;58.80;;;;;;4135529;28;20104;-52
2022/12/12 02:19:02;;;;;;;2.90;1.42;;;28.60;58.70;;;;;;4133337;28;20073;-49
2022/12/12 02:21:53;;;;;;;3.40;1.50;;;28.70;58.80;;;;;;4129977;28;20042;-48
2022/12/12 02:24:33;;;;;;;2.60;1.50;;;28.70;58.80;;;;;;4133617;28;20045;-49
2022/12/12 02:27:26;;;;;;;2.30;1.13;;;28.70;59.00;;;;;;4134903;28;20076;-52
2022/12/12 02:29:51;;;;;;;1.55;1.02;;;28.70;59.20;;;;;;4128455;28;20038;-50
2022/12/12 02:32:32;;;;;;;4.00;1.25;;;28.70;59.20;;;;;;4138265;28;20040;-51
2022/12/12 02:35:13;;;;;;;2.30;1.27;;;28.80;59.40;;;;;;4137069;28;20050;-48
2022/12/12 02:37:54;;;;;;;3.47;1.40;;;28.80;59.50;;;;;;4135374;28;20134;-48
2022/12/12 02:40:55;;;;;;;3.95;1.30;;;28.90;59.40;;;;;;4135926;28;20042;-49
2022/12/12 02:43:43;;;;;;;3.35;1.27;;;28.90;59.40;;;;;;4136781;28;20573;-49
2022/12/12 02:46:14;;;;;;;2.40;1.27;;;28.90;59.30;;;;;;4138197;28;20128;-49
2022/12/12 02:48:47;;;;;;;4.22;1.05;;;28.90;59.40;;;;;;4136683;28;20493;-47
2022/12/12 02:51:12;;;;;;;2.70;1.10;;;28.90;59.30;;;;;;4138111;28;20034;-52
2022/12/12 02:53:35;;;;;;;1.90;1.00;;;28.90;59.40;;;;;;4137740;28;20080;-46
2022/12/12 02:56:08;;;;;;;2.78;1.00;;;28.90;59.50;;;;;;4135534;28;20049;-48
2022/12/12 02:58:32;;;;;;;1.40;0.90;;;28.90;59.40;;;;;;4137757;28;20053;-49
2022/12/12 03:01:15;;;;;;;1.70;0.90;;;28.90;59.20;;;;;;4134839;28;20318;-50
2022/12/12 03:09:29;;;;;;;3.10;1.25;;;28.90;58.30;;;;;;4129132;28;20032;-48
2022/12/12 03:12:25;;;;;;;1.77;1.20;;;28.90;58.40;;;;;;4131928;28;20038;-49
2022/12/12 03:14:47;;;;;;;1.88;1.10;;;28.90;58.50;;;;;;4130153;28;20041;-50
2022/12/12 03:17:15;;;;;;;2.03;1.10;;;28.90;58.50;;;;;;4132293;28;20064;-52
2022/12/12 03:19:58;;;;;;;1.70;0.80;;;28.90;58.40;;;;;;4132126;28;20050;-46
2022/12/12 03:22:43;;;;;;;3.55;0.90;;;29.00;58.40;;;;;;4133837;28;20165;-48
2022/12/12 03:25:12;;;;;;;2.83;0.80;;;28.90;58.40;;;;;;4122870;28;20124;-49
2022/12/12 03:28:00;;;;;;;1.50;0.80;;;28.90;58.30;;;;;;4137203;28;20026;-49
2022/12/12 03:30:23;;;;;;;1.48;0.60;;;29.00;58.20;;;;;;4119815;28;20144;-55
2022/12/12 03:33:10;;;;;;;1.13;0.60;;;29.00;58.20;;;;;;4132810;28;20463;-48
2022/12/12 03:35:50;;;;;;;4.82;0.70;;;29.00;58.20;;;;;;4138594;28;20053;-46
2022/12/12 03:38:16;;;;;;;0.75;0.50;;;29.00;58.20;;;;;;4134046;28;20049;-46
2022/12/12 03:40:54;;;;;;;0.95;0.73;;;29.00;58.00;;;;;;4132361;28;20128;-50
2022/12/12 03:43:33;;;;;;;2.65;1.00;;;29.00;57.90;;;;;;4136596;28;20544;-48
2022/12/12 03:46:13;;;;;;;1.10;0.75;;;29.00;57.80;;;;;;4132995;28;20085;-53
2022/12/12 03:48:45;;;;;;;1.90;0.95;;;29.10;57.70;;;;;;4138416;28;20046;-45
2022/12/12 03:51:29;;;;;;;2.22;0.90;;;29.10;57.70;;;;;;4137576;28;20391;-52
2022/12/12 03:54:12;;;;;;;2.20;1.20;;;29.10;57.60;;;;;;4135432;28;20056;-54
2022/12/12 03:56:49;;;;;;;2.30;0.90;;;29.10;57.50;;;;;;4138186;28;20410;-50
2022/12/12 03:59:34;;;;;;;1.73;0.88;;;29.10;57.40;;;;;;4137923;28;20044;-47
2022/12/12 04:02:26;;;;;;;2.00;0.80;;;29.10;57.40;;;;;;4135862;28;20038;-50
2022/12/12 04:05:14;;;;;;;2.17;0.80;;;29.20;57.50;;;;;;4138024;28;20084;-50
2022/12/12 04:07:48;;;;;;;2.35;1.02;;;29.10;57.20;;;;;;4131004;28;20042;-53
2022/12/12 04:13:06;;;;;;;1.92;0.77;;;29.20;57.30;;;;;;4130841;28;20026;-47
2022/12/12 04:15:55;;;;;;;2.42;0.80;;;29.20;57.40;;;;;;4133699;28;20034;-49
2022/12/12 04:18:32;;;;;;;1.58;1.00;;;29.30;57.40;;;;;;4125099;28;20093;-53
2022/12/12 04:24:05;;;;;;;2.03;0.80;;;29.30;57.40;;;;;;4132280;28;20074;-53
2022/12/12 04:26:39;;;;;;;1.25;0.80;;;29.30;57.50;;;;;;4133462;28;20125;-47
2022/12/12 04:29:18;;;;;;;1.35;0.73;;;29.30;57.50;;;;;;4135723;28;20486;-50
2022/12/12 04:32:05;;;;;;;1.17;0.73;;;29.40;57.30;;;;;;4128042;28;20042;-50
2022/12/12 04:35:09;;;;;;;1.15;0.70;;;29.40;57.10;;;;;;4125920;28;20038;-54
2022/12/12 04:37:50;;;;;;;0.82;0.60;;;29.40;56.80;;;;;;4130281;28;20061;-49
2022/12/12 04:40:18;;;;;;;1.42;0.80;;;29.50;56.80;;;;;;4132643;28;20085;-48
2022/12/12 04:42:45;;;;;;;2.67;0.80;;;29.50;56.70;;;;;;4128730;28;20053;-47
2022/12/12 04:45:14;;;;;;;1.40;0.70;;;29.50;56.80;;;;;;4132032;28;20042;-50
2022/12/12 04:47:39;;;;;;;1.85;0.80;;;29.50;56.80;;;;;;4125656;28;20053;-51
2022/12/12 04:50:03;;;;;;;1.17;0.77;;;29.50;56.70;;;;;;4127795;28;20034;-52
2022/12/12 04:52:27;;;;;;;1.40;0.80;;;29.50;56.60;;;;;;4131061;28;20049;-45
2022/12/12 04:55:03;;;;;;;1.42;0.80;;;29.40;57.00;;;;;;4136862;28;20043;-49
2022/12/12 04:57:33;;;;;;;1.05;0.77;;;29.40;56.20;;;;;;4134117;28;20492;-51
2022/12/12 04:59:56;;;;;;;1.55;0.82;;;29.40;56.10;;;;;;4133036;28;20030;-51
2022/12/12 05:02:32;;;;;;;1.13;0.57;;;29.40;56.00;;;;;;4128227;28;20512;-49
2022/12/12 05:05:37;;;;;;;1.27;0.82;;;29.40;56.00;;;;;;4124374;28;20208;-46
2022/12/12 05:08:08;;;;;;;;;;;29.40;55.80;;;;;;4144572;28;20033;-53
2022/12/12 05:10:30;;;;;;;1.83;1.05;;;29.40;55.80;;;;;;4129877;28;19925;-46
2022/12/12 05:12:58;;;;;;;2.22;1.20;;;29.50;55.90;;;;;;4138299;28;20042;-53
2022/12/12 05:15:21;;;;;;;2.63;1.73;;;29.50;55.80;;;;;;4132978;28;20466;-54
2022/12/12 05:18:00;;;;;;;3.53;2.07;;;29.50;55.60;;;;;;4130557;28;20501;-45
2022/12/12 05:20:22;;;;;;;3.20;2.28;;;29.50;55.70;;;;;;4132902;28;20042;-45
2022/12/12 05:22:45;;;;;;;3.13;2.13;;;29.50;55.70;;;;;;4127707;28;20429;-47
2022/12/12 05:25:07;;;;;;;3.95;2.05;;;29.60;55.80;;;;;;4125486;28;20038;-47
2022/12/12 05:27:30;;;;;;;4.18;2.33;;;29.60;55.70;;;;;;4127987;28;20037;-50
2022/12/12 05:29:53;;;;;;;4.35;2.35;;;29.70;55.60;;;;;;4133220;28;20034;-48
2022/12/12 05:32:15;;;;;;;3.90;2.45;;;29.80;55.20;;;;;;4132768;28;20460;-51
2022/12/12 05:34:38;;;;;;;3.30;2.20;;;29.90;54.90;;;;;;4128346;28;20038;-51
2022/12/12 05:37:00;;;;;;;3.15;2.00;;;29.90;55.00;;;;;;4123105;28;20643;-51
2022/12/12 05:39:23;;;;;;;4.68;2.10;;;29.90;55.00;;;;;;4131594;28;20110;-51
2022/12/12 05:41:46;;;;;;;3.33;2.05;;;29.90;54.90;;;;;;4126117;28;20357;-52
2022/12/12 05:44:08;;;;;;;3.53;2.10;;;30.00;55.00;;;;;;4130805;28;20052;-53
2022/12/12 05:46:31;;;;;;;4.68;2.17;;;30.00;54.90;;;;;;4127283;28;20300;-49
2022/12/12 05:48:53;;;;;;;3.53;1.90;;;30.00;54.90;;;;;;4128787;28;20038;-46
2022/12/12 05:51:17;;;;;;;2.88;1.63;;;30.00;54.70;;;;;;4127347;28;20379;-50
2022/12/12 05:53:40;;;;;;;3.72;1.63;;;30.00;54.60;;;;;;4131652;28;20119;-52
2022/12/12 05:56:05;;;;;;;3.33;1.88;;;30.00;54.40;;;;;;4139991;28;20551;-50
2022/12/12 05:58:27;;;;;;;3.25;1.90;;;30.00;54.50;;;;;;4133810;28;20045;-52
2022/12/12 06:00:51;;;;;;;3.05;1.90;;;30.00;54.40;;;;;;4138073;28;20352;-51
2022/12/12 06:03:13;;;;;;;2.17;1.55;;;30.00;54.20;;;;;;4139869;28;20042;-52
2022/12/12 06:05:36;;;;;;;3.55;1.77;;;30.10;54.10;;;;;;4139579;28;20391;-46
2022/12/12 06:07:58;;;;;;;2.42;1.55;;;30.20;54.00;;;;;;4133588;28;20037;-47
2022/12/12 06:10:21;;;;;;;3.13;1.67;;;30.20;53.60;;;;;;4138709;28;20468;-53
2022/12/12 06:12:43;;;;;;;2.33;1.30;;;30.20;53.40;;;;;;4133593;28;20112;-48
2022/12/12 06:15:06;;;;;;;2.78;1.40;;;30.20;53.10;;;;;;4140295;28;20084;-48
2022/12/12 06:17:29;;;;;;;4.20;1.40;;;30.20;53.00;;;;;;4138899;28;20520;-54
2022/12/12 06:19:52;;;;;;;3.03;1.30;;;30.30;53.00;;;;;;4132360;28;20069;-51
2022/12/12 06:22:15;;;;;;;3.22;1.42;;;30.30;52.80;;;;;;4137355;28;20045;-49
2022/12/12 06:24:37;;;;;;;2.53;1.10;;;30.40;52.80;;;;;;4136097;28;20038;-47
2022/12/12 06:27:00;;;;;;;1.40;0.90;;;30.40;52.90;;;;;;4139954;28;20049;-46
2022/12/12 06:29:23;;;;;;;1.95;1.17;;;30.30;52.50;;;;;;4138634;28;20274;-50
2022/12/12 06:31:45;;;;;;;1.77;1.13;;;30.40;52.50;;;;;;4140470;28;20553;-51
2022/12/12 06:34:08;;;;;;;1.80;0.85;;;30.40;52.40;;;;;;4138872;28;20034;-49
2022/12/12 06:36:30;;;;;;;2.03;1.08;;;30.40;52.30;;;;;;4137519;28;20042;-47
2022/12/12 06:38:55;;;;;;;4.17;0.90;;;30.40;52.10;;;;;;4138394;28;20587;-48
2022/12/12 06:41:18;;;;;;;2.28;0.95;;;30.40;51.80;;;;;;4134680;28;20030;-54
2022/12/12 06:43:41;;;;;;;1.95;0.90;;;30.40;51.60;;;;;;4136478;28;20050;-50
2022/12/12 06:46:06;;;;;;;1.77;1.00;;;30.40;51.50;;;;;;4136336;28;20383;-51
2022/12/12 06:48:30;;;;;;;1.50;0.50;;;30.40;51.50;;;;;;4138085;28;20034;-49
2022/12/12 06:50:52;;;;;;;2.03;0.60;;;30.40;51.40;;;;;;4134554;28;20030;-51
2022/12/12 06:53:15;;;;;;;0.93;0.60;;;30.50;51.10;;;;;;4135935;28;20141;-56
2022/12/12 06:55:44;;;;;;;2.55;0.98;;;30.50;51.00;;;;;;4134407;28;20042;-54
2022/12/12 06:58:06;;;;;;;1.42;0.70;;;30.50;50.70;;;;;;4135446;28;20486;-53
2022/12/12 07:00:29;;;;;;;3.63;0.85;;;30.50;50.80;;;;;;4139368;28;20803;-48
2022/12/12 07:02:51;;;;;;;1.27;0.60;;;30.50;50.60;;;;;;4136813;28;20042;-51
2022/12/12 07:05:15;;;;;;;0.98;0.63;;;30.50;50.30;;;;;;4136990;28;20070;-48
2022/12/12 07:07:38;;;;;;;1.20;0.47;;;30.50;50.30;;;;;;4135399;28;20042;-46
2022/12/12 07:10:00;;;;;;;0.60;0.40;;;30.50;50.20;;;;;;4135789;28;20121;-50
2022/12/12 07:12:23;;;;;;;1.85;0.50;;;30.50;50.10;;;;;;4139056;28;20041;-52
2022/12/12 07:14:45;;;;;;;1.90;0.50;;;30.50;50.00;;;;;;4129502;28;20089;-53
2022/12/12 07:17:08;;;;;;;1.15;0.30;;;30.40;49.90;;;;;;4139439;28;20627;-50
2022/12/12 07:19:30;;;;;;;2.00;0.55;;;30.40;49.80;;;;;;4135822;28;20033;-53
2022/12/12 07:21:53;;;;;;;1.02;0.52;;;30.40;49.70;;;;;;4141210;28;20096;-51
2022/12/12 07:24:15;;;;;;;1.55;0.70;;;30.40;49.20;;;;;;4136484;28;20048;-53
2022/12/12 07:26:38;;;;;;;1.55;0.60;;;30.40;45.00;;;;;;4138866;28;20125;-53
2022/12/12 07:29:03;;;;;;;2.72;0.82;;;30.30;43.60;;;;;;4130168;28;20034;-52
2022/12/12 07:31:25;;;;;;;0.93;0.50;;;30.20;42.80;;;;;;4131655;28;20048;-52
2022/12/12 07:33:48;;;;;;;1.17;0.60;;;30.10;42.10;;;;;;4135998;28;20034;-50
2022/12/12 07:36:12;;;;;;;0.77;0.40;;;30.00;43.90;;;;;;4140307;28;20279;-50
2022/12/12 07:38:36;;;;;;;1.83;0.65;;;29.90;42.90;;;;;;4136465;28;20125;-50
2022/12/12 07:41:07;;;;;;;2.35;0.82;;;29.90;42.20;;;;;;4134392;28;20041;-47
2022/12/12 07:43:29;;;;;;;8.30;1.17;;;29.80;42.00;;;;;;4130458;28;20064;-58
2022/12/12 07:45:52;;;;;;;2.15;0.50;;;29.70;42.70;;;;;;4131804;28;20030;-61
2022/12/12 07:48:15;;;;;;;1.67;0.75;;;29.60;43.70;;;;;;4148630;28;20054;-58
2022/12/12 07:50:38;;;;;;;5.72;0.80;;;29.60;43.70;;;;;;4129866;28;20446;-59
2022/12/12 07:53:01;;;;;;;1.77;0.60;;;29.60;44.10;;;;;;4129793;28;20044;-57
2022/12/12 07:55:23;;;;;;;3.33;0.70;;;29.60;44.30;;;;;;4138194;28;20038;-57
2022/12/12 07:57:46;;;;;;;1.40;0.73;;;29.60;44.10;;;;;;4135364;28;20100;-58
2022/12/12 08:00:13;;;;;;;1.95;0.50;;;29.60;44.40;;;;;;4133279;28;20032;-57
2022/12/12 08:02:36;;;;;;;0.75;0.30;;;29.50;44.60;;;;;;4135597;28;20437;-58
2022/12/12 08:04:58;;;;;;;1.77;0.40;;;29.50;45.00;;;;;;4128682;28;20087;-58
2022/12/12 08:07:21;;;;;;;1.17;0.30;;;29.50;44.80;;;;;;4135711;28;20068;-59
2022/12/12 08:09:43;;;;;;;0.30;0.30;;;29.50;45.20;;;;;;4135200;28;20105;-57
2022/12/12 08:12:06;;;;;;;0.50;0.30;;;29.40;45.10;;;;;;4132502;28;20053;-58
2022/12/12 08:14:29;;;;;;;1.08;0.50;;;29.40;45.10;;;;;;4136630;28;20516;-57
2022/12/12 08:16:52;;;;;;;0.75;0.30;;;29.30;44.80;;;;;;4128472;28;20219;-60
2022/12/12 08:19:14;;;;;;;0.40;0.28;;;29.30;44.60;;;;;;4130027;28;20466;-58
2022/12/12 08:21:37;;;;;;;1.00;0.32;;;29.30;45.10;;;;;;4127372;28;20446;-58
2022/12/12 08:24:01;;;;;;;0.80;0.40;;;29.30;45.00;;;;;;4127170;28;20096;-58
2022/12/12 08:26:24;;;;;;;0.55;0.30;;;29.30;44.90;;;;;;4125787;28;20042;-58
2022/12/12 08:28:50;;;;;;;0.35;0.20;;;29.20;45.00;;;;;;4137918;28;20100;-57
2022/12/12 08:31:20;;;;;;;0.25;0.20;;;29.20;44.90;;;;;;4137301;28;21036;-58
2022/12/12 08:33:42;;;;;;;1.08;0.50;;;29.20;45.10;;;;;;4135356;28;20042;-57
2022/12/12 08:36:20;;;;;;;0.37;0.30;;;29.10;45.10;;;;;;4136434;28;20044;-58
2022/12/12 08:38:43;;;;;;;0.50;0.30;;;29.10;45.20;;;;;;4131178;28;20045;-58
2022/12/12 08:41:06;;;;;;;0.20;0.20;;;29.00;44.90;;;;;;4136792;28;20088;-58
2022/12/12 08:43:28;;;;;;;0.50;0.30;;;29.00;45.00;;;;;;4137751;28;20053;-58
2022/12/12 08:45:51;;;;;;;0.52;0.35;;;29.00;44.60;;;;;;4136508;28;20498;-58
2022/12/12 08:48:13;;;;;;;0.17;0.10;;;29.00;44.90;;;;;;4135304;28;20078;-56
2022/12/12 08:50:38;;;;;;;0.40;0.20;;;29.00;44.90;;;;;;4134139;28;20037;-57
2022/12/12 08:53:01;;;;;;;0.55;0.20;;;28.90;44.80;;;;;;4123090;28;20529;-57
2022/12/12 08:55:23;;;;;;;1.17;0.22;;;28.90;44.70;;;;;;4130401;28;20046;-58
2022/12/12 08:57:46;;;;;;;0.88;0.43;;;28.90;44.80;;;;;;4130424;28;20050;-56
2022/12/12 09:00:10;;;;;;;1.20;0.23;;;28.80;44.50;;;;;;4132753;28;20033;-56
2022/12/12 09:02:32;;;;;;;0.88;0.20;;;28.80;44.70;;;;;;4130752;28;20482;-58
2022/12/12 09:04:55;;;;;;;0.20;0.20;;;28.80;44.60;;;;;;4130988;28;20104;-57
2022/12/12 09:07:17;;;;;;;0.70;0.50;;;28.70;44.40;;;;;;4132057;28;20074;-57
2022/12/12 09:09:41;;;;;;;0.47;0.20;;;28.70;44.30;;;;;;4134143;28;20050;-55
2022/12/12 09:12:04;;;;;;;0.30;0.15;;;28.70;44.40;;;;;;4130853;28;20454;-57
2022/12/12 09:14:26;;;;;;;0.30;0.20;;;28.70;44.30;;;;;;4129072;28;20096;-57
2022/12/12 09:16:49;;;;;;;0.30;0.30;;;28.60;44.30;;;;;;4131417;28;20124;-58
2022/12/12 09:19:12;;;;;;;0.55;0.30;;;28.60;44.10;;;;;;4132673;28;20034;-57
2022/12/12 09:21:34;;;;;;;1.33;0.20;;;28.60;44.50;;;;;;4131309;28;20134;-56
2022/12/12 09:23:57;;;;;;;0.17;0.10;;;28.50;44.00;;;;;;4126820;28;20044;-55
2022/12/12 09:26:20;;;;;;;0.70;0.40;;;28.50;44.10;;;;;;4136041;28;20037;-48
2022/12/12 09:28:43;;;;;;;1.48;0.43;;;28.50;43.80;;;;;;4127573;28;20482;-55
2022/12/12 09:31:10;;;;;;;2.90;0.30;;;28.50;45.00;;;;;;4126853;28;20844;-54
2022/12/12 09:33:32;;;;;;;2.38;0.40;;;28.40;45.00;;;;;;4133919;28;20030;-52
2022/12/12 09:36:00;;;;;;;2.73;0.30;;;28.30;45.50;;;;;;4130527;28;20057;-57
2022/12/12 09:38:22;;;;;;;0.50;0.28;;;28.30;45.90;;;;;;4135004;28;20128;-55
2022/12/12 09:41:19;;;;;;;2.35;0.40;;;28.30;46.20;;;;;;4127262;28;20120;-60
2022/12/12 09:43:48;;;;;;;1.85;0.40;;;28.20;46.20;;;;;;4133326;28;20049;-54
2022/12/12 09:46:32;;;;;;;0.68;0.30;;;28.20;46.20;;;;;;4146937;28;20078;-56
2022/12/12 09:49:23;;;;;;;1.35;0.55;;;28.20;46.40;;;;;;4135126;28;20029;-60
2022/12/12 09:51:49;;;;;;;0.65;0.10;;;28.20;46.30;;;;;;4120966;28;20058;-55
2022/12/12 09:54:20;;;;;;;0.40;0.20;;;28.20;46.20;;;;;;4132142;28;20283;-55
2022/12/12 09:57:10;;;;;;;1.58;0.57;;;28.10;46.10;;;;;;4131636;28;20498;-53
2022/12/12 09:59:44;;;;;;;0.75;0.40;;;28.10;46.20;;;;;;4133904;28;21147;-56
2022/12/12 10:02:44;;;;;;;0.70;0.30;;;28.10;46.40;;;;;;4132192;28;20678;-55
2022/12/12 10:05:42;;;;;;;0.43;0.35;;;28.10;46.60;;;;;;4137445;28;20046;-58
2022/12/12 10:08:21;;;;;;;0.20;0.20;;;28.10;46.70;;;;;;4132858;28;20045;-58
2022/12/12 10:10:55;;;;;;;0.55;0.30;;;28.10;46.70;;;;;;4131723;28;20038;-57
2022/12/12 10:13:29;;;;;;;0.10;0.10;;;28.10;46.60;;;;;;4138706;28;20402;-56
2022/12/12 10:15:56;;;;;;;0.10;0.10;;;28.10;46.60;;;;;;4131512;28;20061;-57
2022/12/12 10:18:42;;;;;;;0.35;0.20;;;28.10;46.50;;;;;;4136818;28;20076;-59
2022/12/12 10:21:12;;;;;;;0.32;0.25;;;28.10;46.60;;;;;;4138557;28;20117;-52
2022/12/12 10:23:49;;;;;;;0.55;0.10;;;28.10;46.50;;;;;;4131008;28;20108;-58
2022/12/12 10:26:29;;;;;;;0.20;0.20;;;28.10;46.60;;;;;;4129760;28;20129;-60
2022/12/12 10:28:56;;;;;;;0.63;0.25;;;28.10;46.50;;;;;;4136125;28;20440;-54
2022/12/12 10:31:36;;;;;;;0.25;0.10;;;28.10;46.40;;;;;;4136392;28;20410;-52
2022/12/12 10:34:28;;;;;;;0.52;0.13;;;28.10;46.40;;;;;;4152599;28;20061;-50
2022/12/12 10:37:10;;;;;;;1.33;0.20;;;28.00;46.50;;;;;;4137393;28;20505;-53
2022/12/12 10:39:46;;;;;;;0.75;0.30;;;28.00;46.50;;;;;;4135686;28;20080;-58
2022/12/12 10:42:33;;;;;;;0.47;0.10;;;28.00;46.50;;;;;;4137526;28;20365;-59
2022/12/12 10:45:13;;;;;;;0.22;0.20;;;28.00;46.50;;;;;;4136974;28;20049;-54
2022/12/12 10:47:36;;;;;;;0.30;0.10;;;28.00;46.30;;;;;;4132583;28;20124;-58
2022/12/12 10:50:11;;;;;;;0.63;0.43;;;28.00;46.20;;;;;;4134150;28;20125;-55
2022/12/12 10:52:34;;;;;;;0.10;0.10;;;28.00;46.30;;;;;;4136833;28;20038;-53
2022/12/12 10:55:00;;;;;;;0.10;0.10;;;28.00;46.20;;;;;;4140385;28;20486;-54
2022/12/12 10:57:25;;;;;;;0.75;0.32;;;28.00;46.00;;;;;;4131818;28;20487;-57
2022/12/12 10:59:53;;;;;;;0.45;0.20;;;28.00;46.00;;;;;;4136725;28;20096;-59
2022/12/12 11:02:36;;;;;;;0.30;0.20;;;28.00;46.20;;;;;;4136556;28;20042;-56
2022/12/12 11:05:24;;;;;;;1.05;0.28;;;28.00;46.20;;;;;;4127675;28;20447;-54
2022/12/12 11:07:57;;;;;;;0.20;0.20;;;28.00;46.20;;;;;;4134138;28;20129;-55
2022/12/12 11:10:23;;;;;;;3.85;0.35;;;27.90;46.40;;;;;;4134331;28;20041;-52
2022/12/12 11:12:53;;;;;;;2.50;0.30;;;27.90;46.00;;;;;;4137740;28;20124;-44
2022/12/12 11:15:17;;;;;;;1.75;0.30;;;27.90;46.20;;;;;;4137445;28;20461;-51
2022/12/12 11:17:40;;;;;;;8.80;0.77;;;27.90;46.20;;;;;;4141039;28;20141;-54
2022/12/12 11:20:08;;;;;;;5.55;0.70;;;27.90;46.20;;;;;;4138790;28;20077;-46
2022/12/12 11:22:33;;;;;;;3.50;0.70;;;27.90;46.10;;;;;;4137343;28;20257;-50
2022/12/12 11:24:56;;;;;;;3.08;0.50;;;27.90;46.00;;;;;;4130416;28;20173;-51
2022/12/12 11:27:33;;;;;;;0.93;0.32;;;27.90;46.00;;;;;;4140357;28;20026;-45
2022/12/12 11:30:01;;;;;;;1.63;0.60;;;27.80;45.90;;;;;;4130985;28;20042;-50
2022/12/12 11:32:30;;;;;;;1.73;0.60;;;27.80;46.00;;;;;;4134900;28;20192;-49
2022/12/12 11:35:01;;;;;;;3.55;0.77;;;27.80;45.90;;;;;;4127859;28;20528;-49
2022/12/12 11:37:27;;;;;;;1.27;0.40;;;27.80;45.70;;;;;;4132939;28;20104;-48
2022/12/12 11:39:52;;;;;;;1.02;0.35;;;27.70;43.30;;;;;;4128173;28;20057;-54
2022/12/12 11:42:19;;;;;;;5.18;0.80;;;27.60;42.40;;;;;;4133840;28;20053;-52
2022/12/12 11:44:44;;;;;;;5.05;0.80;;;27.60;42.40;;;;;;4137192;28;20064;-49
2022/12/12 11:47:26;;;;;;;3.83;0.93;;;27.50;42.90;;;;;;4138354;28;20037;-51
2022/12/12 11:49:59;;;;;;;4.43;0.75;;;27.50;43.70;;;;;;4134400;28;20536;-53
2022/12/12 11:52:28;;;;;;;2.83;0.60;;;27.40;43.90;;;;;;4133493;28;20085;-46
2022/12/12 11:54:52;;;;;;;5.70;0.75;;;27.40;44.10;;;;;;4136706;28;20443;-52
2022/12/12 11:57:34;;;;;;;1.55;0.30;;;27.30;44.20;;;;;;4134933;28;20084;-54
2022/12/12 12:00:10;;;;;;;2.67;0.55;;;27.30;44.40;;;;;;4136243;28;20049;-52
2022/12/12 12:03:00;;;;;;;1.48;0.52;;;27.30;44.60;;;;;;4136766;28;20068;-49
2022/12/12 12:06:04;;;;;;;1.55;0.40;;;27.30;44.80;;;;;;4134302;28;20053;-54
2022/12/12 12:08:57;;;;;;;2.35;0.40;;;27.30;45.00;;;;;;4118623;28;20100;-52
2022/12/12 12:11:25;;;;;;;0.28;0.25;;;27.30;45.20;;;;;;4136330;28;20049;-50
2022/12/12 12:13:57;;;;;;;2.38;0.40;;;27.20;45.10;;;;;;4133927;28;20816;-51
2022/12/12 12:16:43;;;;;;;0.70;0.30;;;27.20;45.30;;;;;;4134459;28;20038;-51
2022/12/12 12:19:23;;;;;;;3.33;0.40;;;27.20;45.30;;;;;;4136935;28;20129;-48
2022/12/12 12:21:58;;;;;;;0.80;0.47;;;27.10;45.00;;;;;;4137968;28;20306;-50
2022/12/12 12:24:52;;;;;;;3.55;0.70;;;27.10;45.20;;;;;;4133943;28;20152;-49
2022/12/12 12:27:41;;;;;;;1.58;0.30;;;27.10;45.30;;;;;;4132869;28;20043;-51
2022/12/12 12:30:19;;;;;;;1.40;0.28;;;27.00;45.40;;;;;;4134005;28;20115;-48
2022/12/12 12:32:52;;;;;;;0.20;0.20;;;27.00;45.20;;;;;;4133410;28;20026;-46
2022/12/12 12:35:56;;;;;;;2.42;0.60;;;27.00;45.40;;;;;;4147816;28;20395;-50
2022/12/12 12:38:55;;;;;;;0.38;0.30;;;27.00;45.50;;;;;;4136563;28;20063;-46
2022/12/12 12:41:51;;;;;;;1.60;0.43;;;26.90;45.70;;;;;;4132938;28;20041;-48
2022/12/12 12:44:35;;;;;;;10.77;0.70;;;26.90;45.70;;;;;;4131474;28;20054;-45
2022/12/12 12:47:35;;;;;;;5.68;0.57;;;26.90;45.60;;;;;;4137843;28;20033;-49
2022/12/12 12:50:12;;;;;;;0.30;0.30;;;26.90;45.50;;;;;;4133637;28;20049;-47
2022/12/12 12:53:01;;;;;;;1.35;0.30;;;26.80;45.60;;;;;;4134235;28;20046;-48
2022/12/12 12:55:31;;;;;;;0.20;0.20;;;26.80;45.50;;;;;;4133316;28;20041;-50
2022/12/12 12:57:54;;;;;;;0.47;0.30;;;26.80;45.50;;;;;;4137389;28;20065;-45
2022/12/12 13:00:21;;;;;;;1.02;0.40;;;26.80;45.60;;;;;;4135540;28;20034;-50
2022/12/12 13:03:05;;;;;;;3.15;0.43;;;26.70;45.60;;;;;;4137362;28;20129;-45
2022/12/12 13:05:45;;;;;;;3.38;0.73;;;26.70;45.70;;;;;;4137190;28;20493;-47
2022/12/12 13:08:46;;;;;;;4.18;0.60;;;26.60;45.70;;;;;;4132175;28;20039;-49
2022/12/12 13:11:18;;;;;;;2.20;0.43;;;26.70;45.80;;;;;;4138254;28;20042;-48
2022/12/12 13:13:44;;;;;;;4.72;0.73;;;26.60;45.80;;;;;;4135933;28;20030;-47